sensor_id;sensor_type;location;lat;lon;timestamp;temperature;humidity
19256;DHT22;9762;52.490;13.410;2022-07-06T00:01:38;21.80;90.90
19256;DHT22;9762;52.490;13.410;2022-07-06T00:04:04;21.80;90.20
19256;DHT22;9762;52.490;13.410;2022-07-06T00:06:30;21.80;90.30
19256;DHT22;9762;52.490;13.410;2022-07-06T00:08:56;21.80;90.30
19256;DHT22;9762;52.490;13.410;2022-07-06T00:11:22;21.80;88.80
19256;DHT22;9762;52.490;13.410;2022-07-06T00:13:47;21.70;89.60
19256;DHT22;9762;52.490;13.410;2022-07-06T00:16:13;21.70;90.00
19256;DHT22;9762;52.490;13.410;2022-07-06T00:18:39;21.70;90.60
19256;DHT22;9762;52.490;13.410;2022-07-06T00:21:04;21.80;91.00
19256;DHT22;9762;52.490;13.410;2022-07-06T00:23:30;21.80;91.10
19256;DHT22;9762;52.490;13.410;2022-07-06T00:25:55;21.80;91.20
19256;DHT22;9762;52.490;13.410;2022-07-06T00:28:21;21.80;91.40
19256;DHT22;9762;52.490;13.410;2022-07-06T00:30:47;21.70;91.50
19256;DHT22;9762;52.490;13.410;2022-07-06T00:33:12;21.70;92.20
19256;DHT22;9762;52.490;13.410;2022-07-06T00:35:38;21.70;93.10
19256;DHT22;9762;52.490;13.410;2022-07-06T00:38:04;21.70;88.50
19256;DHT22;9762;52.490;13.410;2022-07-06T00:40:29;21.70;88.50
19256;DHT22;9762;52.490;13.410;2022-07-06T00:42:56;21.80;88.30
19256;DHT22;9762;52.490;13.410;2022-07-06T00:45:22;21.80;87.90
19256;DHT22;9762;52.490;13.410;2022-07-06T00:47:48;21.70;87.30
19256;DHT22;9762;52.490;13.410;2022-07-06T00:50:16;21.80;87.10
19256;DHT22;9762;52.490;13.410;2022-07-06T00:52:49;21.70;87.40
19256;DHT22;9762;52.490;13.410;2022-07-06T00:55:20;21.70;87.80
19256;DHT22;9762;52.490;13.410;2022-07-06T00:57:46;21.70;87.90
19256;DHT22;9762;52.490;13.410;2022-07-06T01:00:13;21.80;88.30
19256;DHT22;9762;52.490;13.410;2022-07-06T01:02:40;21.70;87.80
19256;DHT22;9762;52.490;13.410;2022-07-06T01:05:07;21.70;88.10
19256;DHT22;9762;52.490;13.410;2022-07-06T01:07:33;21.70;87.90
19256;DHT22;9762;52.490;13.410;2022-07-06T01:09:59;21.70;88.50
19256;DHT22;9762;52.490;13.410;2022-07-06T01:12:25;21.60;88.50
19256;DHT22;9762;52.490;13.410;2022-07-06T01:14:50;21.60;89.10
19256;DHT22;9762;52.490;13.410;2022-07-06T01:17:17;21.50;90.00
19256;DHT22;9762;52.490;13.410;2022-07-06T01:19:43;21.50;88.60
19256;DHT22;9762;52.490;13.410;2022-07-06T01:22:09;21.50;90.40
19256;DHT22;9762;52.490;13.410;2022-07-06T01:24:36;21.40;90.80
19256;DHT22;9762;52.490;13.410;2022-07-06T01:27:03;21.40;92.90
19256;DHT22;9762;52.490;13.410;2022-07-06T01:29:29;21.40;93.90
19256;DHT22;9762;52.490;13.410;2022-07-06T01:31:55;21.40;94.20
19256;DHT22;9762;52.490;13.410;2022-07-06T01:34:21;21.40;93.20
19256;DHT22;9762;52.490;13.410;2022-07-06T01:36:47;21.40;93.30
19256;DHT22;9762;52.490;13.410;2022-07-06T01:39:12;21.30;92.40
19256;DHT22;9762;52.490;13.410;2022-07-06T01:41:38;21.30;93.60
19256;DHT22;9762;52.490;13.410;2022-07-06T01:44:04;21.30;93.60
19256;DHT22;9762;52.490;13.410;2022-07-06T01:46:31;21.30;94.00
19256;DHT22;9762;52.490;13.410;2022-07-06T01:48:57;21.30;93.20
19256;DHT22;9762;52.490;13.410;2022-07-06T01:51:23;21.20;93.50
19256;DHT22;9762;52.490;13.410;2022-07-06T01:53:49;21.20;94.00
19256;DHT22;9762;52.490;13.410;2022-07-06T01:56:15;21.20;94.10
19256;DHT22;9762;52.490;13.410;2022-07-06T01:58:42;21.20;94.80
19256;DHT22;9762;52.490;13.410;2022-07-06T02:01:09;21.20;94.90
19256;DHT22;9762;52.490;13.410;2022-07-06T02:13:20;21.10;98.00
19256;DHT22;9762;52.490;13.410;2022-07-06T02:15:45;21.10;65.60
19256;DHT22;9762;52.490;13.410;2022-07-06T02:18:11;21.10;65.20
19256;DHT22;9762;52.490;13.410;2022-07-06T02:20:37;21.10;65.30
19256;DHT22;9762;52.490;13.410;2022-07-06T02:23:02;21.10;65.40
19256;DHT22;9762;52.490;13.410;2022-07-06T02:25:28;21.10;66.00
19256;DHT22;9762;52.490;13.410;2022-07-06T02:27:54;21.10;67.10
19256;DHT22;9762;52.490;13.410;2022-07-06T02:30:19;21.10;67.80
19256;DHT22;9762;52.490;13.410;2022-07-06T02:32:45;21.10;68.50
19256;DHT22;9762;52.490;13.410;2022-07-06T02:35:11;21.00;69.30
19256;DHT22;9762;52.490;13.410;2022-07-06T02:37:38;20.90;69.60
19256;DHT22;9762;52.490;13.410;2022-07-06T02:40:04;20.90;70.00
19256;DHT22;9762;52.490;13.410;2022-07-06T02:42:29;20.80;70.00
19256;DHT22;9762;52.490;13.410;2022-07-06T02:44:55;20.80;70.70
19256;DHT22;9762;52.490;13.410;2022-07-06T02:47:21;20.80;71.10
19256;DHT22;9762;52.490;13.410;2022-07-06T02:49:46;20.90;71.30
19256;DHT22;9762;52.490;13.410;2022-07-06T02:52:12;20.90;71.90
19256;DHT22;9762;52.490;13.410;2022-07-06T02:54:37;20.90;72.10
19256;DHT22;9762;52.490;13.410;2022-07-06T02:57:03;20.90;72.80
19256;DHT22;9762;52.490;13.410;2022-07-06T02:59:29;20.80;73.20
19256;DHT22;9762;52.490;13.410;2022-07-06T03:01:54;20.80;73.40
19256;DHT22;9762;52.490;13.410;2022-07-06T03:04:20;20.80;74.10
19256;DHT22;9762;52.490;13.410;2022-07-06T03:06:45;20.80;74.00
19256;DHT22;9762;52.490;13.410;2022-07-06T03:09:11;20.80;74.60
19256;DHT22;9762;52.490;13.410;2022-07-06T03:11:36;20.70;74.60
19256;DHT22;9762;52.490;13.410;2022-07-06T03:14:05;20.70;74.50
19256;DHT22;9762;52.490;13.410;2022-07-06T03:16:31;20.70;74.60
19256;DHT22;9762;52.490;13.410;2022-07-06T03:18:57;20.70;74.80
19256;DHT22;9762;52.490;13.410;2022-07-06T03:21:24;20.70;74.80
19256;DHT22;9762;52.490;13.410;2022-07-06T03:23:50;20.70;74.70
19256;DHT22;9762;52.490;13.410;2022-07-06T03:26:16;20.70;74.60
19256;DHT22;9762;52.490;13.410;2022-07-06T03:28:41;20.70;74.90
19256;DHT22;9762;52.490;13.410;2022-07-06T03:31:07;20.60;74.50
19256;DHT22;9762;52.490;13.410;2022-07-06T03:33:32;20.60;75.10
19256;DHT22;9762;52.490;13.410;2022-07-06T03:35:58;20.60;75.10
19256;DHT22;9762;52.490;13.410;2022-07-06T03:38:24;20.60;75.00
19256;DHT22;9762;52.490;13.410;2022-07-06T03:40:49;20.50;75.20
19256;DHT22;9762;52.490;13.410;2022-07-06T03:43:15;20.50;75.00
19256;DHT22;9762;52.490;13.410;2022-07-06T03:45:41;20.50;75.00
19256;DHT22;9762;52.490;13.410;2022-07-06T03:48:06;20.50;75.00
19256;DHT22;9762;52.490;13.410;2022-07-06T03:50:32;20.50;75.00
19256;DHT22;9762;52.490;13.410;2022-07-06T03:52:58;20.40;74.90
19256;DHT22;9762;52.490;13.410;2022-07-06T03:55:23;20.40;75.10
19256;DHT22;9762;52.490;13.410;2022-07-06T03:57:49;20.30;75.00
19256;DHT22;9762;52.490;13.410;2022-07-06T04:00:14;20.30;75.10
19256;DHT22;9762;52.490;13.410;2022-07-06T04:02:40;20.30;75.10
19256;DHT22;9762;52.490;13.410;2022-07-06T04:05:06;20.30;75.30
19256;DHT22;9762;52.490;13.410;2022-07-06T04:07:32;20.20;75.40
19256;DHT22;9762;52.490;13.410;2022-07-06T04:09:58;20.20;75.50
19256;DHT22;9762;52.490;13.410;2022-07-06T04:12:23;20.20;75.60
19256;DHT22;9762;52.490;13.410;2022-07-06T04:14:49;20.20;75.60
19256;DHT22;9762;52.490;13.410;2022-07-06T04:17:14;20.20;75.40
19256;DHT22;9762;52.490;13.410;2022-07-06T04:19:58;20.20;75.30
19256;DHT22;9762;52.490;13.410;2022-07-06T04:22:24;20.40;75.10
19256;DHT22;9762;52.490;13.410;2022-07-06T04:24:50;20.20;75.00
19256;DHT22;9762;52.490;13.410;2022-07-06T04:27:15;20.30;75.00
19256;DHT22;9762;52.490;13.410;2022-07-06T04:29:41;20.30;75.00
19256;DHT22;9762;52.490;13.410;2022-07-06T04:32:06;20.30;74.60
19256;DHT22;9762;52.490;13.410;2022-07-06T04:34:32;20.40;74.50
19256;DHT22;9762;52.490;13.410;2022-07-06T04:36:58;20.40;74.50
19256;DHT22;9762;52.490;13.410;2022-07-06T04:39:23;20.40;74.50
19256;DHT22;9762;52.490;13.410;2022-07-06T04:41:49;20.50;74.60
19256;DHT22;9762;52.490;13.410;2022-07-06T04:44:14;20.40;74.50
19256;DHT22;9762;52.490;13.410;2022-07-06T04:46:40;20.40;74.50
19256;DHT22;9762;52.490;13.410;2022-07-06T04:49:06;20.40;74.60
19256;DHT22;9762;52.490;13.410;2022-07-06T04:51:32;20.40;75.10
19256;DHT22;9762;52.490;13.410;2022-07-06T04:53:58;20.40;75.80
19256;DHT22;9762;52.490;13.410;2022-07-06T04:56:23;20.40;75.80
19256;DHT22;9762;52.490;13.410;2022-07-06T04:58:49;20.30;76.50
19256;DHT22;9762;52.490;13.410;2022-07-06T05:01:14;20.30;79.00
19256;DHT22;9762;52.490;13.410;2022-07-06T05:03:40;20.20;79.30
19256;DHT22;9762;52.490;13.410;2022-07-06T05:06:06;20.20;82.30
19256;DHT22;9762;52.490;13.410;2022-07-06T05:10:58;20.30;94.90
19256;DHT22;9762;52.490;13.410;2022-07-06T05:13:23;20.30;95.30
19256;DHT22;9762;52.490;13.410;2022-07-06T05:15:49;20.20;95.30
19256;DHT22;9762;52.490;13.410;2022-07-06T05:18:15;20.30;95.50
19256;DHT22;9762;52.490;13.410;2022-07-06T05:20:40;20.30;95.50
19256;DHT22;9762;52.490;13.410;2022-07-06T05:23:06;20.30;95.50
19256;DHT22;9762;52.490;13.410;2022-07-06T05:25:31;20.30;95.40
19256;DHT22;9762;52.490;13.410;2022-07-06T05:27:58;20.30;95.20
19256;DHT22;9762;52.490;13.410;2022-07-06T05:30:24;20.40;95.20
19256;DHT22;9762;52.490;13.410;2022-07-06T05:32:50;20.40;95.20
19256;DHT22;9762;52.490;13.410;2022-07-06T05:35:16;20.40;95.10
19256;DHT22;9762;52.490;13.410;2022-07-06T05:37:42;20.40;95.00
19256;DHT22;9762;52.490;13.410;2022-07-06T05:40:08;20.40;95.10
19256;DHT22;9762;52.490;13.410;2022-07-06T05:42:33;20.40;95.00
19256;DHT22;9762;52.490;13.410;2022-07-06T05:44:59;20.40;94.90
19256;DHT22;9762;52.490;13.410;2022-07-06T05:47:24;20.40;95.00
19256;DHT22;9762;52.490;13.410;2022-07-06T05:50:09;20.40;94.80
19256;DHT22;9762;52.490;13.410;2022-07-06T05:52:37;20.20;94.70
19256;DHT22;9762;52.490;13.410;2022-07-06T05:55:03;20.50;94.80
19256;DHT22;9762;52.490;13.410;2022-07-06T05:57:29;20.50;94.60
19256;DHT22;9762;52.490;13.410;2022-07-06T05:59:54;20.50;94.50
19256;DHT22;9762;52.490;13.410;2022-07-06T06:02:20;20.60;94.40
19256;DHT22;9762;52.490;13.410;2022-07-06T06:04:46;20.60;94.30
19256;DHT22;9762;52.490;13.410;2022-07-06T06:07:11;20.60;94.40
19256;DHT22;9762;52.490;13.410;2022-07-06T06:09:37;20.70;94.20
19256;DHT22;9762;52.490;13.410;2022-07-06T06:12:03;20.70;94.20
19256;DHT22;9762;52.490;13.410;2022-07-06T06:14:28;20.80;94.10
19256;DHT22;9762;52.490;13.410;2022-07-06T06:16:54;20.80;94.20
19256;DHT22;9762;52.490;13.410;2022-07-06T06:19:20;20.80;94.20
19256;DHT22;9762;52.490;13.410;2022-07-06T06:21:45;20.80;94.20
19256;DHT22;9762;52.490;13.410;2022-07-06T06:24:11;20.80;94.00
19256;DHT22;9762;52.490;13.410;2022-07-06T06:26:36;20.80;94.10
19256;DHT22;9762;52.490;13.410;2022-07-06T06:29:02;20.80;94.30
19256;DHT22;9762;52.490;13.410;2022-07-06T06:31:28;20.90;94.30
19256;DHT22;9762;52.490;13.410;2022-07-06T06:33:53;20.90;94.20
19256;DHT22;9762;52.490;13.410;2022-07-06T06:36:19;20.90;94.20
19256;DHT22;9762;52.490;13.410;2022-07-06T06:38:44;21.00;94.20
19256;DHT22;9762;52.490;13.410;2022-07-06T06:41:10;21.10;94.30
19256;DHT22;9762;52.490;13.410;2022-07-06T06:43:36;21.10;94.10
19256;DHT22;9762;52.490;13.410;2022-07-06T06:46:01;21.10;93.90
19256;DHT22;9762;52.490;13.410;2022-07-06T06:48:27;21.20;94.00
19256;DHT22;9762;52.490;13.410;2022-07-06T06:50:53;21.30;94.00
19256;DHT22;9762;52.490;13.410;2022-07-06T06:53:18;21.30;93.90
19256;DHT22;9762;52.490;13.410;2022-07-06T06:55:44;21.40;93.70
19256;DHT22;9762;52.490;13.410;2022-07-06T06:58:09;21.40;93.30
19256;DHT22;9762;52.490;13.410;2022-07-06T07:00:35;21.40;93.30
19256;DHT22;9762;52.490;13.410;2022-07-06T07:03:00;21.40;93.00
19256;DHT22;9762;52.490;13.410;2022-07-06T07:05:26;21.50;93.00
19256;DHT22;9762;52.490;13.410;2022-07-06T07:07:52;21.40;93.00
19256;DHT22;9762;52.490;13.410;2022-07-06T07:10:18;21.50;92.90
19256;DHT22;9762;52.490;13.410;2022-07-06T07:12:47;21.50;93.00
19256;DHT22;9762;52.490;13.410;2022-07-06T07:15:13;21.60;93.10
19256;DHT22;9762;52.490;13.410;2022-07-06T07:17:39;21.60;93.00
19256;DHT22;9762;52.490;13.410;2022-07-06T07:20:05;21.70;92.80
19256;DHT22;9762;52.490;13.410;2022-07-06T07:22:31;21.70;92.70
19256;DHT22;9762;52.490;13.410;2022-07-06T07:24:57;21.80;92.60
19256;DHT22;9762;52.490;13.410;2022-07-06T07:27:24;21.90;92.40
19256;DHT22;9762;52.490;13.410;2022-07-06T07:29:50;21.90;91.90
19256;DHT22;9762;52.490;13.410;2022-07-06T07:32:16;22.00;68.00
19256;DHT22;9762;52.490;13.410;2022-07-06T07:34:41;21.90;67.90
19256;DHT22;9762;52.490;13.410;2022-07-06T07:37:07;22.00;67.80
19256;DHT22;9762;52.490;13.410;2022-07-06T07:39:32;22.00;67.50
19256;DHT22;9762;52.490;13.410;2022-07-06T07:41:58;22.00;66.30
19256;DHT22;9762;52.490;13.410;2022-07-06T07:44:24;22.00;65.00
19256;DHT22;9762;52.490;13.410;2022-07-06T07:46:50;21.90;64.50
19256;DHT22;9762;52.490;13.410;2022-07-06T07:49:18;21.80;65.20
19256;DHT22;9762;52.490;13.410;2022-07-06T07:51:44;21.90;65.80
19256;DHT22;9762;52.490;13.410;2022-07-06T07:54:12;21.90;65.70
19256;DHT22;9762;52.490;13.410;2022-07-06T07:56:38;21.90;65.20
19256;DHT22;9762;52.490;13.410;2022-07-06T07:59:06;22.00;65.50
19256;DHT22;9762;52.490;13.410;2022-07-06T08:01:32;22.10;64.80
19256;DHT22;9762;52.490;13.410;2022-07-06T08:03:58;22.10;64.80
19256;DHT22;9762;52.490;13.410;2022-07-06T08:06:24;22.10;63.60
19256;DHT22;9762;52.490;13.410;2022-07-06T08:08:49;22.20;64.00
19256;DHT22;9762;52.490;13.410;2022-07-06T08:11:15;22.30;63.70
19256;DHT22;9762;52.490;13.410;2022-07-06T08:13:41;22.40;63.40
19256;DHT22;9762;52.490;13.410;2022-07-06T08:16:06;22.40;62.30
19256;DHT22;9762;52.490;13.410;2022-07-06T08:18:33;22.50;62.20
19256;DHT22;9762;52.490;13.410;2022-07-06T08:20:59;22.50;64.70
19256;DHT22;9762;52.490;13.410;2022-07-06T08:23:25;22.50;64.10
19256;DHT22;9762;52.490;13.410;2022-07-06T08:25:50;22.50;64.30
19256;DHT22;9762;52.490;13.410;2022-07-06T08:28:16;22.50;64.70
19256;DHT22;9762;52.490;13.410;2022-07-06T08:30:41;22.50;64.00
19256;DHT22;9762;52.490;13.410;2022-07-06T08:33:07;22.50;64.00
19256;DHT22;9762;52.490;13.410;2022-07-06T08:35:32;22.40;63.10
19256;DHT22;9762;52.490;13.410;2022-07-06T08:37:58;22.50;62.80
19256;DHT22;9762;52.490;13.410;2022-07-06T08:40:24;22.50;62.30
19256;DHT22;9762;52.490;13.410;2022-07-06T08:42:53;22.60;62.90
19256;DHT22;9762;52.490;13.410;2022-07-06T08:45:20;22.60;62.30
19256;DHT22;9762;52.490;13.410;2022-07-06T08:47:48;22.80;61.40
19256;DHT22;9762;52.490;13.410;2022-07-06T08:50:15;22.80;60.00
19256;DHT22;9762;52.490;13.410;2022-07-06T08:52:41;22.80;57.60
19256;DHT22;9762;52.490;13.410;2022-07-06T08:55:10;22.70;57.40
19256;DHT22;9762;52.490;13.410;2022-07-06T08:57:37;22.70;57.20
19256;DHT22;9762;52.490;13.410;2022-07-06T09:00:07;22.80;56.40
19256;DHT22;9762;52.490;13.410;2022-07-06T09:02:33;22.90;56.40
19256;DHT22;9762;52.490;13.410;2022-07-06T09:05:02;23.00;56.30
19256;DHT22;9762;52.490;13.410;2022-07-06T09:07:29;23.00;57.80
19256;DHT22;9762;52.490;13.410;2022-07-06T09:09:55;23.00;58.80
19256;DHT22;9762;52.490;13.410;2022-07-06T09:12:21;23.00;59.60
19256;DHT22;9762;52.490;13.410;2022-07-06T09:14:47;23.00;59.40
19256;DHT22;9762;52.490;13.410;2022-07-06T09:17:13;23.00;59.60
19256;DHT22;9762;52.490;13.410;2022-07-06T09:19:39;23.00;59.80
19256;DHT22;9762;52.490;13.410;2022-07-06T09:22:05;23.00;59.60
19256;DHT22;9762;52.490;13.410;2022-07-06T09:24:31;23.10;59.90
19256;DHT22;9762;52.490;13.410;2022-07-06T09:26:57;23.00;59.90
19256;DHT22;9762;52.490;13.410;2022-07-06T09:29:28;23.10;61.00
19256;DHT22;9762;52.490;13.410;2022-07-06T09:31:58;23.10;59.50
19256;DHT22;9762;52.490;13.410;2022-07-06T09:34:24;23.10;59.30
19256;DHT22;9762;52.490;13.410;2022-07-06T09:36:53;23.20;59.40
19256;DHT22;9762;52.490;13.410;2022-07-06T09:39:26;23.20;58.80
19256;DHT22;9762;52.490;13.410;2022-07-06T09:41:54;23.10;58.50
19256;DHT22;9762;52.490;13.410;2022-07-06T09:44:31;23.10;59.70
19256;DHT22;9762;52.490;13.410;2022-07-06T09:47:08;23.10;60.20
19256;DHT22;9762;52.490;13.410;2022-07-06T09:49:35;21.00;50.70
19256;DHT22;9762;52.490;13.410;2022-07-06T09:52:03;23.10;51.80
19256;DHT22;9762;52.490;13.410;2022-07-06T09:54:29;23.10;51.90
19256;DHT22;9762;52.490;13.410;2022-07-06T09:56:56;23.10;51.90
19256;DHT22;9762;52.490;13.410;2022-07-06T09:59:23;23.00;52.10
19256;DHT22;9762;52.490;13.410;2022-07-06T10:01:55;23.00;52.20
19256;DHT22;9762;52.490;13.410;2022-07-06T10:04:22;23.00;52.50
19256;DHT22;9762;52.490;13.410;2022-07-06T10:06:48;23.00;53.10
19256;DHT22;9762;52.490;13.410;2022-07-06T10:09:14;23.00;53.70
19256;DHT22;9762;52.490;13.410;2022-07-06T10:11:43;23.00;54.00
19256;DHT22;9762;52.490;13.410;2022-07-06T10:14:10;23.00;53.90
19256;DHT22;9762;52.490;13.410;2022-07-06T10:16:38;23.00;54.30
19256;DHT22;9762;52.490;13.410;2022-07-06T10:19:06;23.00;54.30
19256;DHT22;9762;52.490;13.410;2022-07-06T10:21:37;23.00;54.60
19256;DHT22;9762;52.490;13.410;2022-07-06T10:24:04;23.10;55.10
19256;DHT22;9762;52.490;13.410;2022-07-06T10:26:32;23.10;55.20
19256;DHT22;9762;52.490;13.410;2022-07-06T10:28:58;23.20;54.70
19256;DHT22;9762;52.490;13.410;2022-07-06T10:31:25;23.20;54.50
19256;DHT22;9762;52.490;13.410;2022-07-06T10:33:52;23.30;54.90
19256;DHT22;9762;52.490;13.410;2022-07-06T10:36:18;23.30;55.30
19256;DHT22;9762;52.490;13.410;2022-07-06T10:38:49;23.40;55.30
19256;DHT22;9762;52.490;13.410;2022-07-06T10:41:15;23.40;55.50
19256;DHT22;9762;52.490;13.410;2022-07-06T10:43:46;23.40;55.30
19256;DHT22;9762;52.490;13.410;2022-07-06T10:46:13;23.40;54.90
19256;DHT22;9762;52.490;13.410;2022-07-06T10:48:41;23.40;55.30
19256;DHT22;9762;52.490;13.410;2022-07-06T10:51:07;23.50;55.40
19256;DHT22;9762;52.490;13.410;2022-07-06T10:53:35;23.50;55.40
19256;DHT22;9762;52.490;13.410;2022-07-06T10:56:03;23.60;55.50
19256;DHT22;9762;52.490;13.410;2022-07-06T10:58:42;23.70;55.30
19256;DHT22;9762;52.490;13.410;2022-07-06T11:01:11;23.80;54.90
19256;DHT22;9762;52.490;13.410;2022-07-06T11:03:38;23.90;54.80
19256;DHT22;9762;52.490;13.410;2022-07-06T11:06:15;24.00;54.20
19256;DHT22;9762;52.490;13.410;2022-07-06T11:08:58;24.10;52.20
19256;DHT22;9762;52.490;13.410;2022-07-06T11:13:59;24.30;51.80
19256;DHT22;9762;52.490;13.410;2022-07-06T11:16:28;24.40;51.50
19256;DHT22;9762;52.490;13.410;2022-07-06T11:19:11;24.50;51.80
19256;DHT22;9762;52.490;13.410;2022-07-06T11:24:11;24.70;51.60
19256;DHT22;9762;52.490;13.410;2022-07-06T11:26:37;24.70;51.50
19256;DHT22;9762;52.490;13.410;2022-07-06T11:29:08;24.60;52.00
19256;DHT22;9762;52.490;13.410;2022-07-06T11:31:35;24.60;52.30
19256;DHT22;9762;52.490;13.410;2022-07-06T11:34:03;24.50;52.70
19256;DHT22;9762;52.490;13.410;2022-07-06T11:36:29;24.40;53.00
19256;DHT22;9762;52.490;13.410;2022-07-06T11:38:54;24.40;52.80
19256;DHT22;9762;52.490;13.410;2022-07-06T11:41:20;24.30;52.80
19256;DHT22;9762;52.490;13.410;2022-07-06T11:43:47;24.30;52.60
19256;DHT22;9762;52.490;13.410;2022-07-06T11:46:23;24.20;52.40
19256;DHT22;9762;52.490;13.410;2022-07-06T11:48:51;24.20;52.90
19256;DHT22;9762;52.490;13.410;2022-07-06T11:51:18;24.20;52.60
19256;DHT22;9762;52.490;13.410;2022-07-06T11:53:49;24.20;52.80
19256;DHT22;9762;52.490;13.410;2022-07-06T11:56:16;24.20;52.50
19256;DHT22;9762;52.490;13.410;2022-07-06T11:58:45;24.20;52.40
19256;DHT22;9762;52.490;13.410;2022-07-06T12:01:13;24.20;52.40
19256;DHT22;9762;52.490;13.410;2022-07-06T12:03:38;24.30;51.80
19256;DHT22;9762;52.490;13.410;2022-07-06T12:06:06;24.50;51.60
19256;DHT22;9762;52.490;13.410;2022-07-06T12:08:31;24.60;51.40
19256;DHT22;9762;52.490;13.410;2022-07-06T12:10:59;24.80;51.80
19256;DHT22;9762;52.490;13.410;2022-07-06T12:13:25;24.90;51.40
19256;DHT22;9762;52.490;13.410;2022-07-06T12:15:51;25.10;51.50
19256;DHT22;9762;52.490;13.410;2022-07-06T12:18:17;25.10;51.40
19256;DHT22;9762;52.490;13.410;2022-07-06T12:20:43;25.10;51.50
19256;DHT22;9762;52.490;13.410;2022-07-06T12:23:08;25.10;51.50
19256;DHT22;9762;52.490;13.410;2022-07-06T12:25:36;25.10;51.30
19256;DHT22;9762;52.490;13.410;2022-07-06T12:28:02;25.00;52.20
19256;DHT22;9762;52.490;13.410;2022-07-06T12:30:28;25.00;52.40
19256;DHT22;9762;52.490;13.410;2022-07-06T12:35:38;24.90;53.40
19256;DHT22;9762;52.490;13.410;2022-07-06T12:38:05;24.90;54.10
19256;DHT22;9762;52.490;13.410;2022-07-06T12:40:30;25.00;54.30
19256;DHT22;9762;52.490;13.410;2022-07-06T12:42:56;25.10;55.00
19256;DHT22;9762;52.490;13.410;2022-07-06T12:45:29;25.20;55.70
19256;DHT22;9762;52.490;13.410;2022-07-06T12:50:37;25.40;50.30
19256;DHT22;9762;52.490;13.410;2022-07-06T12:53:04;25.40;50.70
19256;DHT22;9762;52.490;13.410;2022-07-06T12:55:30;25.50;50.60
19256;DHT22;9762;52.490;13.410;2022-07-06T12:57:57;25.50;50.60
19256;DHT22;9762;52.490;13.410;2022-07-06T13:00:23;25.50;50.90
19256;DHT22;9762;52.490;13.410;2022-07-06T13:02:51;25.60;51.20
19256;DHT22;9762;52.490;13.410;2022-07-06T13:05:24;25.60;51.00
19256;DHT22;9762;52.490;13.410;2022-07-06T13:07:53;25.60;51.10
19256;DHT22;9762;52.490;13.410;2022-07-06T13:10:23;25.60;51.40
19256;DHT22;9762;52.490;13.410;2022-07-06T13:12:49;25.60;51.00
19256;DHT22;9762;52.490;13.410;2022-07-06T13:15:15;25.60;50.90
19256;DHT22;9762;52.490;13.410;2022-07-06T13:17:42;25.60;50.50
19256;DHT22;9762;52.490;13.410;2022-07-06T13:20:10;25.50;50.00
19256;DHT22;9762;52.490;13.410;2022-07-06T13:22:36;25.40;49.80
19256;DHT22;9762;52.490;13.410;2022-07-06T13:25:03;25.40;50.10
19256;DHT22;9762;52.490;13.410;2022-07-06T13:27:29;25.40;50.40
19256;DHT22;9762;52.490;13.410;2022-07-06T13:29:54;25.50;50.30
19256;DHT22;9762;52.490;13.410;2022-07-06T13:32:20;25.50;50.20
19256;DHT22;9762;52.490;13.410;2022-07-06T13:34:47;25.60;49.70
19256;DHT22;9762;52.490;13.410;2022-07-06T13:37:12;25.60;49.70
19256;DHT22;9762;52.490;13.410;2022-07-06T13:39:38;25.60;49.80
19256;DHT22;9762;52.490;13.410;2022-07-06T13:42:04;25.60;50.10
19256;DHT22;9762;52.490;13.410;2022-07-06T13:44:29;25.60;50.20
19256;DHT22;9762;52.490;13.410;2022-07-06T13:46:55;25.50;50.30
19256;DHT22;9762;52.490;13.410;2022-07-06T13:49:21;25.50;49.90
19256;DHT22;9762;52.490;13.410;2022-07-06T13:51:46;25.40;49.60
19256;DHT22;9762;52.490;13.410;2022-07-06T13:54:12;25.30;49.50
19256;DHT22;9762;52.490;13.410;2022-07-06T13:56:38;25.20;49.40
19256;DHT22;9762;52.490;13.410;2022-07-06T13:59:04;25.20;49.60
19256;DHT22;9762;52.490;13.410;2022-07-06T14:01:30;25.10;50.10
19256;DHT22;9762;52.490;13.410;2022-07-06T14:03:56;25.00;50.50
19256;DHT22;9762;52.490;13.410;2022-07-06T14:06:21;25.00;51.10
19256;DHT22;9762;52.490;13.410;2022-07-06T14:08:47;24.90;51.00
19256;DHT22;9762;52.490;13.410;2022-07-06T14:11:13;25.00;51.20
19256;DHT22;9762;52.490;13.410;2022-07-06T14:13:38;25.00;50.70
19256;DHT22;9762;52.490;13.410;2022-07-06T14:16:05;25.00;49.80
19256;DHT22;9762;52.490;13.410;2022-07-06T14:18:31;25.00;49.60
19256;DHT22;9762;52.490;13.410;2022-07-06T14:20:57;25.00;50.00
19256;DHT22;9762;52.490;13.410;2022-07-06T14:23:24;25.00;49.60
19256;DHT22;9762;52.490;13.410;2022-07-06T14:25:50;24.90;49.50
19256;DHT22;9762;52.490;13.410;2022-07-06T14:28:16;24.90;49.40
19256;DHT22;9762;52.490;13.410;2022-07-06T14:30:42;24.90;49.40
19256;DHT22;9762;52.490;13.410;2022-07-06T14:33:10;25.00;49.70
19256;DHT22;9762;52.490;13.410;2022-07-06T14:35:38;25.10;49.70
19256;DHT22;9762;52.490;13.410;2022-07-06T14:38:05;25.10;49.50
19256;DHT22;9762;52.490;13.410;2022-07-06T14:40:31;25.20;49.50
19256;DHT22;9762;52.490;13.410;2022-07-06T14:42:58;25.20;49.60
19256;DHT22;9762;52.490;13.410;2022-07-06T14:45:24;25.10;49.90
19256;DHT22;9762;52.490;13.410;2022-07-06T14:47:50;25.10;49.80
19256;DHT22;9762;52.490;13.410;2022-07-06T14:50:16;25.10;50.00
19256;DHT22;9762;52.490;13.410;2022-07-06T14:52:42;24.90;50.00
19256;DHT22;9762;52.490;13.410;2022-07-06T14:55:08;24.80;50.10
19256;DHT22;9762;52.490;13.410;2022-07-06T14:57:34;24.70;50.40
19256;DHT22;9762;52.490;13.410;2022-07-06T14:59:59;24.50;50.90
19256;DHT22;9762;52.490;13.410;2022-07-06T15:02:25;24.40;51.50
19256;DHT22;9762;52.490;13.410;2022-07-06T15:04:51;24.30;51.60
19256;DHT22;9762;52.490;13.410;2022-07-06T15:07:16;24.30;51.90
19256;DHT22;9762;52.490;13.410;2022-07-06T15:09:42;24.20;52.20
19256;DHT22;9762;52.490;13.410;2022-07-06T15:12:08;24.10;52.40
19256;DHT22;9762;52.490;13.410;2022-07-06T15:14:34;24.00;52.70
19256;DHT22;9762;52.490;13.410;2022-07-06T15:16:59;23.90;53.20
19256;DHT22;9762;52.490;13.410;2022-07-06T15:19:26;23.90;53.50
19256;DHT22;9762;52.490;13.410;2022-07-06T15:21:52;23.80;53.60
19256;DHT22;9762;52.490;13.410;2022-07-06T15:24:18;23.80;53.80
19256;DHT22;9762;52.490;13.410;2022-07-06T15:26:44;23.80;54.00
19256;DHT22;9762;52.490;13.410;2022-07-06T15:29:09;23.70;54.10
19256;DHT22;9762;52.490;13.410;2022-07-06T15:31:35;23.70;54.30
19256;DHT22;9762;52.490;13.410;2022-07-06T15:34:00;23.60;54.60
19256;DHT22;9762;52.490;13.410;2022-07-06T15:36:26;23.60;54.90
19256;DHT22;9762;52.490;13.410;2022-07-06T15:38:52;23.50;54.80
19256;DHT22;9762;52.490;13.410;2022-07-06T15:41:18;23.50;54.80
19256;DHT22;9762;52.490;13.410;2022-07-06T15:43:44;23.50;54.80
19256;DHT22;9762;52.490;13.410;2022-07-06T15:46:11;23.50;55.00
19256;DHT22;9762;52.490;13.410;2022-07-06T15:48:37;23.50;55.00